• Join FlightAware (Why Join?)
  • Login
  • US Flag 
07:11PM EST


 

Airport Tracker/Info


-or-


 

Live Flight TrackerFlight Track Log ✈ ASQ6041 ✈ 04-Sep-2013 ✈ KLNK - KDEN

Flight Track Log - Related Links

Times and Time Zones

All times are in EDT time to prevent confusion due to time zone crossing. See the ASQ6041 flight status page for this flight to view local times or setup timezone preferences in your user account.

Time Position Orientation Groundspeed Altitude Reporting Facility
EDT Latitude Longitude Course Direction KTS MPH feet Rate Location/Type
01:47PM 40.7597 -96.8008 210° Southwest 208 239 4,900  Level Minneapolis Center
01:48PM 40.7125 -96.8494 218° Southwest 250 288 7,000 2,100 Climbing Minneapolis Center
01:50PM 40.6353 -96.9389 221° Southwest 264 304 10,000 1,380 Climbing Minneapolis Center
01:51PM 40.8142 -97.2888 253° West  Level FlightAware Approximate
01:51PM 40.5997 -97.0478 247° West 336 387 10,600  Level Minneapolis Center
01:52PM 40.7881 -97.4179 257° West  Level FlightAware Approximate
01:52PM 40.6000 -97.1783 270° West 354 407 12,800  Level Minneapolis Center
01:53PM 40.6003 -97.3056 270° West 351 404 15,100 2,100 Climbing Minneapolis Center
01:54PM 40.6019 -97.4361 271° West 346 398 17,200 1,800 Climbing Minneapolis Center
01:55PM 40.6017 -97.5619 270° West 345 397 18,900 1,680 Climbing Minneapolis Center
01:56PM 40.6031 -97.6892 271° West 346 398 20,800 1,740 Climbing Minneapolis Center
01:57PM 40.6036 -97.8422 270° West 348 400 22,600 1,440 Climbing Minneapolis Center
01:58PM 40.6047 -97.9739 271° West 355 409 23,800 1,140 Climbing Minneapolis Center
01:59PM 40.6050 -98.1103 270° West 367 422 25,000 1,140 Climbing Minneapolis Center
02:00PM 40.6233 -98.2456 280° West 373 429 26,200 1,260 Climbing Minneapolis Center
02:01PM 40.6453 -98.3792 282° West 373 429 27,700 1,500 Climbing Minneapolis Center
02:02PM 40.6656 -98.5111 281° West 369 425 29,400 1,500 Climbing Minneapolis Center
02:03PM 40.6622 -98.6442 268° West 364 419 30,900 1,320 Climbing Minneapolis Center
02:04PM 40.6708 -98.8039 274° West 363 418 32,200 1,080 Climbing Minneapolis Center
02:05PM 40.6808 -98.9408 276° West 369 425 33,200 840 Climbing Minneapolis Center
02:06PM 40.6906 -99.0806 275° West 377 434 34,000 480 Climbing Minneapolis Center
02:07PM 40.6964 -99.1686 275° West 389 448 34,000  Level Denver Center
02:08PM 40.7061 -99.3231 275° West 419 482 34,000  Level Denver Center
02:09PM 40.7178 -99.4847 275° West 438 504 34,000  Level Denver Center
02:10PM 40.7278 -99.6461 275° West 440 506 34,000  Level Denver Center
02:11PM 40.7378 -99.8067 275° West 439 505 34,000  Level Denver Center
02:12PM 40.7475 -99.9700 275° West 439 505 34,000  Level Denver Center
02:13PM 40.7586 -100.1475 275° West 437 503 34,000  Level Denver Center
02:14PM 40.7664 -100.2992 274° West 434 499 34,000  Level Denver Center
02:15PM 40.7772 -100.4775 275° West 435 501 34,000  Level Denver Center
02:16PM 40.7828 -100.6283 273° West 429 494 34,000  Level Denver Center
02:17PM 40.7572 -100.7972 259° West 481 554 34,000  Level Denver Center
02:18PM 40.7344 -100.9728 260° West 437 503 34,000  Level Denver Center
02:19PM 40.7089 -101.1256 258° West 443 510 34,000  Level Denver Center
02:20PM 40.6781 -101.3033 257° West 446 513 34,000  Level Denver Center
02:21PM 40.6519 -101.4561 257° West 447 514 34,000  Level Denver Center
02:23PM 40.6203 -101.6331 257° West 445 512 34,000  Level Denver Center
02:24PM 40.5928 -101.7844 257° West 445 512 34,000  Level Denver Center
02:25PM 40.5617 -101.9594 257° West 443 510 34,000  Level Denver Center
02:26PM 40.5331 -102.1094 256° West 442 509 34,000  Level Denver Center
02:27PM 40.4986 -102.2833 255° West 441 507 34,000  Level Denver Center
02:28PM 40.4722 -102.4325 257° West 440 506 34,000  Level Denver Center
02:29PM 40.4453 -102.5814 257° West 439 505 34,000 -60 Level Denver Center
02:30PM 40.4119 -102.7589 256° West 442 509 33,900 -540 Descending Denver Center
02:31PM 40.3831 -102.9125 256° West 437 503 33,000 -1,500 Descending Denver Center
02:32PM 40.3531 -103.0656 256° West 436 502 30,900 -2,100 Descending Denver Center
02:33PM 40.3233 -103.2200 256° West 439 505 28,700 -2,280 Descending Denver Center
02:34PM 40.2953 -103.3689 256° West 425 489 26,300 -2,520 Descending Denver Center
02:35PM 40.2611 -103.5436 256° West 418 481 23,600 -2,340 Descending Denver Center
02:36PM 40.2339 -103.6836 256° West 402 463 21,600 -2,040 Descending Denver Center
02:37PM 40.2064 -103.8192 255° West 350 403 19,500 -1,860 Descending Denver Center
02:38PM 40.2097 -103.9361 272° West 321 369 17,800 -1,860 Descending Denver Center
02:39PM 40.2192 -104.0581 276° West 316 364 15,700 -1,740 Descending Denver Center
02:40PM 40.2297 -104.1683 277° West 307 353 14,300 -1,260 Descending Denver Center
02:41PM 40.2275 -104.2711 268° West 294 338 13,100 -1,200 Descending Denver Center
02:42PM 40.2131 -104.3864 261° West 299 344 11,900 -1,320 Descending Denver Center
02:43PM 40.1808 -104.4814 246° West 295 339 10,500 -1,440 Descending Denver Center
02:44PM 40.1167 -104.5833 231° Southwest 273 314 8,800 -1,260 Descending Denver TRACON
02:45PM 40.0719 -104.6264 216° Southwest 265 305 8,000 -720 Descending Denver Center
02:46PM 40.0133 -104.6697 210° Southwest 245 282 7,500 -780 Descending Denver Center
02:47PM 39.9547 -104.6861 192° South 192 221 6,400 -960 Descending Denver Center
02:48PM 39.9100 -104.6867 181° South 164 189 5,600 -540 Descending Denver Center
02:49PM 39.8772 -104.6867 180° South 124 143 5,400 -240 Descending Denver Center